Time;durP1;ratioP1;P1;durP2;ratioP2;P2;SDS_P1;SDS_P2;PMS_P1;PMS_P2;Temp;Humidity;BMP_temperature;BMP_pressure;BME280_temperature;BME280_humidity;BME280_pressure;Samples;Min_cycle;Max_cycle;Signal;HPM_P1;HPM_P2
2022/08/20 00:00:55;;;;;;;20.90;15.40;;;;;;;21.55;62.95;98538.11;106355;1277;22643;-88
2022/08/20 00:04:03;;;;;;;25.20;15.80;;;;;;;21.59;62.95;98546.27;105580;1281;24230;-86
2022/08/20 00:06:32;;;;;;;21.40;14.50;;;;;;;21.62;62.85;98555.02;105989;1278;22548;-89
2022/08/20 00:08:59;;;;;;;24.10;15.10;;;;;;;21.57;62.92;98553.98;105879;1278;24278;-87
2022/08/20 00:12:33;;;;;;;21.50;15.10;;;;;;;21.52;62.95;98551.34;106248;1279;22821;-86
2022/08/20 00:15:18;;;;;;;24.00;15.20;;;;;;;21.45;63.16;98551.33;105907;1277;22589;-87
2022/08/20 00:18:11;;;;;;;23.40;14.90;;;;;;;21.40;63.22;98552.11;106050;1279;22566;-86
2022/08/20 00:21:04;;;;;;;20.70;13.30;;;;;;;21.34;63.31;98544.56;106223;1278;24274;-88
2022/08/20 00:23:49;;;;;;;21.50;13.70;;;;;;;21.27;63.35;98545.27;104790;1278;22827;-88
2022/08/20 00:27:01;;;;;;;;;;;;;;;;;;;;;
2022/08/20 00:29:47;;;;;;;25.30;15.60;;;;;;;21.18;63.73;98557.91;106125;1278;22550;-87
2022/08/20 00:32:44;;;;;;;;;;;;;;;;;;;;;
2022/08/20 00:35:45;;;;;;;;;;;;;;;;;;;;;
2022/08/20 00:39:05;;;;;;;25.10;16.50;;;;;;;21.14;63.83;98562.06;105958;1278;25307;-87
2022/08/20 00:42:37;;;;;;;;;;;;;;;;;;;;;
2022/08/20 00:45:45;;;;;;;25.80;16.40;;;;;;;21.08;64.03;98565.70;106133;1278;25290;-88
2022/08/20 00:48:51;;;;;;;24.80;15.90;;;;;;;21.13;64.12;98568.52;105911;1276;22928;-89
2022/08/20 00:52:27;;;;;;;25.10;16.20;;;;;;;21.17;64.16;98570.95;105746;1279;23758;-91
2022/08/20 00:56:04;;;;;;;27.70;16.80;;;;;;;21.18;64.27;98581.44;105861;1279;25354;-87
2022/08/20 00:58:23;;;;;;;26.70;17.90;;;;;;;21.19;64.29;98580.56;105952;1277;23168;-89
2022/08/20 01:00:50;;;;;;;28.60;16.90;;;;;;;21.18;64.26;98581.11;105824;1278;22561;-90
2022/08/20 01:03:20;;;;;;;27.30;18.00;;;;;;;21.15;64.33;98583.88;106218;1277;25467;-88
2022/08/20 01:05:50;;;;;;;27.40;17.80;;;;;;;21.11;64.35;98592.47;106161;1278;22544;-88
2022/08/20 01:08:25;;;;;;;28.80;17.10;;;;;;;21.12;64.48;98585.84;105938;1279;25349;-87
2022/08/20 01:11:08;;;;;;;26.80;17.30;;;;;;;21.12;64.42;98581.87;106106;1276;22560;-89
2022/08/20 01:13:39;;;;;;;26.80;17.90;;;;;;;21.09;64.51;98581.29;106062;1276;25304;-87
2022/08/20 01:16:15;;;;;;;28.60;17.00;;;;;;;21.08;64.57;98581.98;105670;1279;25442;-87
2022/08/20 01:18:48;;;;;;;25.70;17.30;;;;;;;21.10;64.63;98582.80;105774;1281;22546;-90
2022/08/20 01:21:38;;;;;;;28.00;16.90;;;;;;;21.11;64.72;98584.65;105621;1281;22531;-89
2022/08/20 01:24:35;;;;;;;26.70;18.50;;;;;;;21.12;64.83;98584.77;105817;1279;25241;-88
2022/08/20 01:27:12;;;;;;;27.40;18.40;;;;;;;21.11;64.87;98584.82;105678;1280;22560;-87
2022/08/20 01:29:44;;;;;;;27.10;17.90;;;;;;;21.11;64.89;98584.15;106078;1277;22541;-89
2022/08/20 01:32:13;;;;;;;27.90;17.90;;;;;;;21.11;64.87;98585.73;105970;1279;25513;-87
2022/08/20 01:34:46;;;;;;;26.60;17.90;;;;;;;21.13;65.03;98587.39;105847;1279;24255;-87
2022/08/20 01:37:13;;;;;;;28.40;19.00;;;;;;;21.09;64.89;98584.71;105843;1279;22747;-91
2022/08/20 01:39:46;;;;;;;25.30;17.70;;;;;;;21.08;65.02;98580.95;105839;1279;22571;-87
2022/08/20 01:42:29;;;;;;;26.50;18.20;;;;;;;21.11;65.01;98582.86;105894;1279;22560;-86
2022/08/20 01:44:57;;;;;;;26.20;18.30;;;;;;;21.11;65.22;98578.51;105902;1279;25266;-87
2022/08/20 01:47:34;;;;;;;26.60;17.80;;;;;;;21.12;65.17;98582.55;105894;1279;22566;-87
2022/08/20 01:50:24;;;;;;;27.00;17.80;;;;;;;21.15;65.22;98579.86;105863;1280;24403;-87
2022/08/20 01:53:18;;;;;;;25.60;17.80;;;;;;;21.15;65.33;98576.73;106276;1279;22573;-87
2022/08/20 01:55:50;;;;;;;25.70;16.40;;;;;;;21.11;65.23;98568.72;105946;1279;22840;-88
2022/08/20 01:58:22;;;;;;;24.60;17.00;;;;;;;21.10;65.25;98566.80;106386;1279;25241;-87
2022/08/20 02:00:49;;;;;;;24.90;16.80;;;;;;;21.09;65.38;98565.46;105813;1279;24200;-88
2022/08/20 02:03:16;;;;;;;26.50;16.40;;;;;;;21.04;65.39;98555.70;105858;1279;24231;-87
2022/08/20 02:05:50;;;;;;;23.50;15.50;;;;;;;21.05;65.60;98549.74;105933;1279;25608;-87
2022/08/20 02:08:22;;;;;;;24.70;16.40;;;;;;;21.05;65.47;98549.61;105835;1279;25388;-88
2022/08/20 02:10:54;;;;;;;26.90;16.30;;;;;;;21.04;65.55;98552.54;105914;1279;23295;-86
2022/08/20 02:13:31;;;;;;;25.70;16.70;;;;;;;21.05;65.62;98543.64;106005;1279;22583;-87
2022/08/20 02:16:06;;;;;;;25.40;16.90;;;;;;;21.00;65.69;98541.36;105940;1279;25462;-89
2022/08/20 02:18:38;;;;;;;24.90;17.00;;;;;;;20.94;65.76;98544.77;106217;1280;22580;-88
2022/08/20 02:21:11;;;;;;;24.90;16.00;;;;;;;20.91;65.77;98550.57;105880;1278;25548;-86
2022/08/20 02:23:44;;;;;;;25.70;16.20;;;;;;;20.90;65.85;98554.56;106031;1278;24311;-85
2022/08/20 02:26:25;;;;;;;24.70;15.90;;;;;;;20.87;65.92;98549.33;105884;1278;24313;-89
2022/08/20 02:29:00;;;;;;;26.20;16.40;;;;;;;20.85;65.97;98538.30;105938;1278;24238;-87
2022/08/20 02:31:32;;;;;;;25.40;15.70;;;;;;;20.82;66.07;98536.72;105931;1280;22661;-86
2022/08/20 02:34:08;;;;;;;24.30;15.90;;;;;;;20.84;66.15;98531.77;105964;1279;24000;-86
2022/08/20 02:36:39;;;;;;;28.00;18.10;;;;;;;20.82;66.16;98526.02;106154;1278;26549;-86
2022/08/20 02:39:13;;;;;;;26.10;16.60;;;;;;;20.78;66.22;98522.30;105820;1280;22570;-86
2022/08/20 02:41:45;;;;;;;25.10;15.70;;;;;;;20.78;66.29;98521.17;106096;1278;23247;-86
2022/08/20 02:44:19;;;;;;;28.20;16.90;;;;;;;20.82;66.38;98526.62;105781;1280;22558;-87
2022/08/20 02:46:54;;;;;;;23.50;14.80;;;;;;;20.81;66.36;98522.42;106002;1280;22592;-89
2022/08/20 02:49:23;;;;;;;25.50;16.50;;;;;;;20.77;66.35;98514.29;105942;1279;25509;-88
2022/08/20 02:51:54;;;;;;;27.40;16.60;;;;;;;20.75;66.49;98507.02;105974;1280;25250;-87
2022/08/20 02:54:35;;;;;;;25.20;16.10;;;;;;;20.77;66.52;98507.42;105838;1279;25305;-88
2022/08/20 02:57:07;;;;;;;25.60;17.00;;;;;;;20.80;66.56;98514.92;105896;1280;22575;-88
2022/08/20 02:59:42;;;;;;;25.90;16.70;;;;;;;20.79;66.54;98519.50;105947;1280;23534;-88
2022/08/20 03:02:12;;;;;;;26.70;16.70;;;;;;;20.78;66.60;98518.91;106265;1279;25246;-87
2022/08/20 03:04:45;;;;;;;23.30;14.90;;;;;;;20.72;66.59;98513.61;105825;1279;24365;-88
2022/08/20 03:07:15;;;;;;;30.20;16.70;;;;;;;20.62;66.62;98508.19;106246;1279;24412;-86
2022/08/20 03:09:47;;;;;;;28.20;16.40;;;;;;;20.56;66.90;98511.32;105928;1279;22481;-88
2022/08/20 03:12:23;;;;;;;27.10;16.90;;;;;;;20.55;66.88;98513.39;105935;1279;22591;-87
2022/08/20 03:14:58;;;;;;;29.60;18.00;;;;;;;20.60;66.91;98508.33;105968;1278;22551;-89
2022/08/20 03:17:28;;;;;;;29.40;18.30;;;;;;;20.65;67.00;98508.77;105989;1280;22539;-87
2022/08/20 03:20:03;;;;;;;29.60;18.10;;;;;;;20.66;66.99;98506.23;106486;1278;23302;-87
2022/08/20 03:22:36;;;;;;;28.20;18.50;;;;;;;20.72;67.04;98510.04;106131;1278;23350;-89
2022/08/20 03:25:04;;;;;;;30.30;19.20;;;;;;;20.75;67.05;98504.37;105925;1278;25312;-86
2022/08/20 03:27:39;;;;;;;28.40;18.90;;;;;;;20.79;67.08;98505.44;106108;1280;22562;-90
2022/08/20 03:30:21;;;;;;;28.30;18.90;;;;;;;20.83;67.24;98508.34;105871;1280;22565;-87
2022/08/20 03:32:51;;;;;;;29.70;17.80;;;;;;;20.90;67.08;98508.73;105987;1279;25197;-87
2022/08/20 03:35:22;;;;;;;29.90;18.40;;;;;;;20.98;67.16;98509.39;105842;1280;25504;-85
2022/08/20 03:37:55;;;;;;;31.10;19.00;;;;;;;21.06;67.18;98516.94;106049;1278;22557;-87
2022/08/20 03:40:34;;;;;;;34.60;20.70;;;;;;;21.09;67.14;98518.89;106170;1280;24422;-89
2022/08/20 03:43:17;;;;;;;32.00;19.40;;;;;;;21.06;67.17;98514.19;105775;1280;22547;-91
2022/08/20 03:46:13;;;;;;;29.70;20.10;;;;;;;21.07;67.18;98509.92;106048;1279;22657;-90
2022/08/20 03:48:59;;;;;;;30.70;20.00;;;;;;;20.96;67.11;98504.54;105957;1280;25375;-87
2022/08/20 03:51:36;;;;;;;31.10;19.80;;;;;;;20.91;67.24;98502.29;106070;1278;22614;-89
2022/08/20 03:54:44;;;;;;;27.60;17.00;;;;;;;20.91;67.32;98508.85;105973;1280;22623;-88
2022/08/20 03:57:22;;;;;;;29.40;18.20;;;;;;;21.02;67.57;98509.65;105981;1278;22581;-88
2022/08/20 03:59:59;;;;;;;26.60;16.50;;;;;;;21.11;67.58;98513.27;105977;1279;22545;-88
2022/08/20 04:02:29;;;;;;;30.60;19.30;;;;;;;21.18;67.54;98513.98;106116;1279;22577;-88
2022/08/20 04:05:16;;;;;;;27.40;17.00;;;;;;;21.19;67.40;98515.05;106010;1279;22834;-88
2022/08/20 04:08:01;;;;;;;30.20;18.40;;;;;;;21.23;67.38;98514.20;105926;1280;22543;-87
2022/08/20 04:11:10;;;;;;;30.80;19.30;;;;;;;21.25;67.45;98512.40;106295;1278;25291;-88
2022/08/20 04:14:49;;;;;;;33.40;20.10;;;;;;;21.19;67.32;98512.40;106003;1279;22933;-91
2022/08/20 04:18:19;;;;;;;28.10;18.30;;;;;;;21.12;67.53;98519.41;106163;1277;22557;-89
2022/08/20 04:21:19;;;;;;;29.30;17.30;;;;;;;21.11;67.69;98524.22;105839;1281;24419;-88
2022/08/20 04:23:56;;;;;;;28.10;17.70;;;;;;;21.18;67.70;98518.29;106062;1278;22625;-88
2022/08/20 04:27:14;;;;;;;29.70;18.30;;;;;;;21.26;67.67;98513.33;105924;1279;23111;-87
2022/08/20 04:30:23;;;;;;;30.00;18.70;;;;;;;21.35;67.66;98526.87;105737;1280;25364;-86
2022/08/20 04:33:20;;;;;;;;;;;;;;;;;;;;;
2022/08/20 04:36:41;;;;;;;;;;;;;;;;;;;;;
2022/08/20 04:43:58;;;;;;;;;;;;;;;;;;;;;
2022/08/20 04:47:09;;;;;;;31.60;18.50;;;;;;;21.37;67.87;98531.77;106016;1281;25243;-87
2022/08/20 04:50:22;;;;;;;27.90;17.70;;;;;;;21.38;67.77;98526.70;105796;1279;22564;-89
2022/08/20 04:53:14;;;;;;;;;;;;;;;;;;;;;
2022/08/20 04:56:14;;;;;;;31.00;19.00;;;;;;;21.38;67.89;98542.40;105980;1282;25319;-87
2022/08/20 04:59:26;;;;;;;;;;;;;;;;;;;;;
2022/08/20 05:02:38;;;;;;;;;;;;;;;;;;;;;
2022/08/20 05:05:49;;;;;;;35.00;18.90;;;;;;;21.35;67.91;98558.08;106238;1278;22557;-87
2022/08/20 05:09:20;;;;;;;36.50;19.40;;;;;;;21.38;67.94;98562.51;106044;1278;22586;-87
2022/08/20 05:12:06;;;;;;;;;;;;;;;;;;;;;
2022/08/20 05:15:02;;;;;;;31.10;18.80;;;;;;;21.42;68.16;98577.96;106140;1280;22566;-87
2022/08/20 05:18:11;;;;;;;32.60;18.80;;;;;;;21.43;68.03;98580.35;105766;1281;22607;-87
2022/08/20 05:20:48;;;;;;;33.10;19.50;;;;;;;21.40;68.09;98579.99;105969;1279;23212;-87
2022/08/20 05:23:31;;;;;;;36.10;19.60;;;;;;;21.39;68.10;98582.41;105948;1280;24221;-89
2022/08/20 05:26:18;;;;;;;31.50;18.80;;;;;;;21.38;68.21;98576.71;105854;1280;25316;-87
2022/08/20 05:29:07;;;;;;;32.50;19.50;;;;;;;21.44;68.37;98581.91;105788;1281;24261;-91
2022/08/20 05:31:45;;;;;;;32.40;20.70;;;;;;;21.54;68.29;98588.35;106471;1279;24913;-86
2022/08/20 05:34:47;;;;;;;33.80;19.40;;;;;;;21.63;68.26;98590.06;106106;1280;22554;-89
2022/08/20 05:37:20;;;;;;;30.40;18.40;;;;;;;21.68;68.27;98594.59;106078;1279;22588;-86
2022/08/20 05:40:00;;;;;;;36.50;20.50;;;;;;;21.71;68.32;98592.79;105955;1279;24189;-87
2022/08/20 05:42:30;;;;;;;34.80;19.50;;;;;;;21.74;68.33;98590.80;105881;1280;22574;-87
2022/08/20 05:45:00;;;;;;;35.30;19.70;;;;;;;21.78;68.24;98592.46;105972;1280;24362;-88
2022/08/20 05:47:33;;;;;;;33.80;19.10;;;;;;;21.75;68.22;98587.61;105937;1279;22586;-87
2022/08/20 05:50:07;;;;;;;32.30;18.50;;;;;;;21.67;68.18;98584.77;105728;1279;22576;-86
2022/08/20 05:52:34;;;;;;;32.60;19.10;;;;;;;21.65;68.28;98577.14;106062;1280;22544;-93
2022/08/20 05:55:13;;;;;;;33.60;21.00;;;;;;;21.66;68.42;98573.41;105886;1279;24297;-87
2022/08/20 05:57:48;;;;;;;33.90;20.70;;;;;;;21.65;68.42;98569.45;105724;1283;22634;-86
2022/08/20 06:00:21;;;;;;;33.40;19.60;;;;;;;21.65;68.33;98569.65;105746;1282;22660;-86
2022/08/20 06:05:57;;;;;;;33.60;19.30;;;;;;;21.47;68.39;98572.67;105830;1280;22735;-87
2022/08/20 06:08:39;;;;;;;33.00;19.30;;;;;;;21.45;68.75;98571.02;105779;1280;25311;-87
2022/08/20 06:11:15;;;;;;;32.00;20.10;;;;;;;21.51;68.70;98570.71;105837;1279;22560;-87
2022/08/20 06:13:43;;;;;;;36.60;20.50;;;;;;;21.54;68.80;98573.95;105787;1281;24246;-87
2022/08/20 06:16:17;;;;;;;35.50;21.30;;;;;;;21.54;68.69;98574.05;105891;1280;25419;-86
2022/08/20 06:18:48;;;;;;;42.60;22.50;;;;;;;21.52;68.74;98575.28;105823;1279;24369;-89
2022/08/20 06:21:21;;;;;;;40.00;22.60;;;;;;;21.57;68.97;98580.73;106013;1280;25456;-86
2022/08/20 06:23:50;;;;;;;41.10;22.40;;;;;;;21.60;68.80;98582.73;106146;1280;24332;-86
2022/08/20 06:26:20;;;;;;;39.50;21.80;;;;;;;21.61;68.79;98583.94;105876;1282;25637;-87
2022/08/20 06:28:49;;;;;;;41.50;21.10;;;;;;;21.63;68.92;98586.90;105870;1278;22743;-86
2022/08/20 06:31:22;;;;;;;39.20;22.00;;;;;;;21.63;68.64;98585.45;105902;1280;22625;-87
2022/08/20 06:33:52;;;;;;;40.90;22.60;;;;;;;21.62;68.89;98577.06;105798;1279;25603;-87
2022/08/20 06:36:24;;;;;;;44.10;23.50;;;;;;;21.71;68.99;98577.33;105889;1280;24291;-86
2022/08/20 06:38:56;;;;;;;46.30;23.50;;;;;;;21.71;68.77;98582.47;106156;1278;22560;-87
2022/08/20 06:41:29;;;;;;;43.50;22.70;;;;;;;21.69;68.83;98589.39;105820;1280;22551;-87
2022/08/20 06:43:56;;;;;;;43.20;22.50;;;;;;;21.70;68.89;98583.68;105941;1279;22665;-87
2022/08/20 06:46:23;;;;;;;49.80;23.80;;;;;;;21.71;68.80;98578.63;106046;1279;25207;-89
2022/08/20 06:49:02;;;;;;;45.40;23.70;;;;;;;21.73;68.96;98573.29;105946;1280;22561;-87
2022/08/20 06:51:41;;;;;;;44.10;23.10;;;;;;;21.84;69.05;98577.03;105787;1279;22556;-87
2022/08/20 06:54:11;;;;;;;53.80;25.30;;;;;;;21.93;69.02;98580.13;105821;1280;22610;-87
2022/08/20 06:56:42;;;;;;;46.10;24.20;;;;;;;22.00;69.01;98580.98;105923;1279;25421;-86
2022/08/20 06:59:09;;;;;;;48.20;23.70;;;;;;;22.04;69.03;98583.33;105923;1279;22583;-84
2022/08/20 07:01:45;;;;;;;46.00;22.90;;;;;;;22.08;68.90;98584.13;105891;1279;22609;-86
2022/08/20 07:04:15;;;;;;;47.80;22.40;;;;;;;22.11;68.87;98589.36;106136;1277;22532;-88
2022/08/20 07:06:50;;;;;;;41.40;19.70;;;;;;;22.04;68.72;98589.86;105771;1280;22601;-85
2022/08/20 07:09:27;;;;;;;40.10;20.60;;;;;;;21.96;68.76;98588.94;105926;1280;25242;-86
2022/08/20 07:11:57;;;;;;;44.20;22.40;;;;;;;21.92;68.97;98592.21;105809;1280;24318;-85
2022/08/20 07:14:36;;;;;;;41.40;21.60;;;;;;;21.93;68.97;98594.09;106099;1278;24288;-85
2022/08/20 07:17:17;;;;;;;43.50;22.20;;;;;;;21.88;68.95;98595.11;105954;1278;22528;-87
2022/08/20 07:19:59;;;;;;;51.90;24.80;;;;;;;21.80;69.09;98592.17;105880;1280;22537;-86
2022/08/20 07:22:26;;;;;;;46.50;23.30;;;;;;;21.80;69.33;98591.42;105923;1279;25514;-86
2022/08/20 07:24:59;;;;;;;46.20;22.80;;;;;;;21.88;69.35;98590.96;106190;1278;22724;-86
2022/08/20 07:27:38;;;;;;;44.80;23.30;;;;;;;21.92;69.16;98598.56;105759;1280;22618;-87
2022/08/20 07:33:08;;;;;;;40.40;22.30;;;;;;;22.10;69.55;98591.45;105892;1279;22659;-86
2022/08/20 07:35:39;;;;;;;34.80;18.20;;;;;;;22.18;69.31;98588.42;105851;1278;24086;-87
2022/08/20 07:38:27;;;;;;;41.20;22.00;;;;;;;22.17;69.04;98578.97;105876;1280;25445;-86
2022/08/20 07:41:11;;;;;;;43.10;21.60;;;;;;;22.17;69.30;98583.56;105838;1279;26919;-88
2022/08/20 07:43:50;;;;;;;43.30;22.20;;;;;;;22.30;69.60;98592.50;106189;1280;22766;-85
2022/08/20 07:46:30;;;;;;;45.30;21.90;;;;;;;22.44;69.50;98596.59;105838;1280;25345;-86
2022/08/20 07:49:08;;;;;;;45.50;23.30;;;;;;;22.50;69.07;98595.92;106164;1279;25317;-86
2022/08/20 07:52:00;;;;;;;45.90;21.60;;;;;;;22.49;69.12;98585.54;105756;1278;25626;-88
2022/08/20 07:54:40;;;;;;;39.60;21.60;;;;;;;22.58;69.15;98586.47;105874;1281;24298;-86
2022/08/20 07:57:09;;;;;;;37.60;20.90;;;;;;;22.81;69.54;98587.05;105933;1277;22633;-89
2022/08/20 07:59:52;;;;;;;42.80;22.40;;;;;;;23.15;69.64;98591.66;105956;1278;22583;-87
2022/08/20 08:02:49;;;;;;;39.80;20.60;;;;;;;23.36;69.16;98590.70;106015;1281;24261;-87
2022/08/20 08:05:32;;;;;;;39.60;21.40;;;;;;;23.29;68.61;98586.48;106113;1278;24366;-85
2022/08/20 08:08:13;;;;;;;;;;;;;;;;;;;;;
2022/08/20 08:11:19;;;;;;;36.00;18.70;;;;;;;23.27;68.54;98582.29;105702;1281;22633;-86
2022/08/20 08:14:25;;;;;;;34.50;19.30;;;;;;;23.22;68.43;98585.48;105724;1277;22541;-85
2022/08/20 08:17:20;;;;;;;36.50;20.00;;;;;;;23.20;68.86;98591.35;105722;1280;22614;-87
2022/08/20 08:19:59;;;;;;;33.90;19.90;;;;;;;23.26;68.96;98595.44;106167;1278;22562;-88
2022/08/20 08:22:57;;;;;;;36.70;18.70;;;;;;;23.39;69.19;98596.63;105758;1281;24290;-88
2022/08/20 08:25:38;;;;;;;37.20;19.80;;;;;;;23.53;68.75;98595.04;105945;1278;25352;-85
2022/08/20 08:28:35;;;;;;;35.70;19.60;;;;;;;23.56;68.92;98594.38;105839;1280;22606;-91
2022/08/20 08:31:50;;;;;;;39.60;21.30;;;;;;;23.71;69.04;98597.23;105777;1281;22704;-88
2022/08/20 08:34:46;;;;;;;34.10;20.30;;;;;;;23.80;68.74;98596.45;106080;1278;25460;-86
2022/08/20 08:37:17;;;;;;;31.00;19.00;;;;;;;23.88;68.84;98589.04;105685;1280;24241;-88
2022/08/20 08:40:06;;;;;;;33.40;19.60;;;;;;;23.90;68.37;98589.97;105711;1281;24794;-87
2022/08/20 08:42:57;;;;;;;31.60;17.80;;;;;;;23.76;68.23;98589.23;105887;1281;22467;-84
2022/08/20 08:45:47;;;;;;;36.00;20.30;;;;;;;23.61;68.33;98591.55;106342;1281;25491;-86
2022/08/20 08:48:52;;;;;;;31.90;19.40;;;;;;;23.63;68.46;98593.71;105971;1280;25326;-86
2022/08/20 08:51:54;;;;;;;35.20;20.30;;;;;;;23.59;68.65;98597.00;106253;1278;25277;-84
2022/08/20 08:54:56;;;;;;;35.60;20.10;;;;;;;23.73;68.56;98597.39;105811;1281;22563;-86
2022/08/20 08:57:40;;;;;;;33.90;20.30;;;;;;;23.82;68.65;98596.03;105906;1280;25250;-85
2022/08/20 09:00:17;;;;;;;30.70;16.70;;;;;;;24.07;68.94;98591.29;106251;1278;22687;-85
2022/08/20 09:03:43;;;;;;;32.10;18.50;;;;;;;24.45;68.36;98585.87;105903;1277;24279;-87
2022/08/20 09:06:30;;;;;;;31.60;18.80;;;;;;;24.87;68.12;98581.94;106031;1280;22567;-86
2022/08/20 09:09:01;;;;;;;32.10;19.20;;;;;;;25.01;67.76;98579.43;105913;1281;23034;-86
2022/08/20 09:11:53;;;;;;;27.60;17.10;;;;;;;25.10;68.07;98579.34;105894;1281;24264;-87
2022/08/20 09:14:44;;;;;;;24.40;15.70;;;;;;;25.17;67.77;98579.95;106019;1278;25634;-86
2022/08/20 09:17:20;;;;;;;30.30;17.10;;;;;;;25.07;67.57;98581.37;106150;1278;24456;-89
2022/08/20 09:19:49;;;;;;;28.90;18.10;;;;;;;25.00;67.39;98583.89;105980;1278;24208;-87
2022/08/20 09:22:24;;;;;;;31.10;16.80;;;;;;;24.84;67.09;98586.15;105877;1278;22569;-86
2022/08/20 09:24:58;;;;;;;29.80;18.10;;;;;;;24.75;67.56;98586.72;106112;1277;22950;-86
2022/08/20 09:27:30;;;;;;;25.40;16.90;;;;;;;24.82;67.44;98588.98;106048;1278;22639;-86
2022/08/20 09:29:58;;;;;;;29.70;18.00;;;;;;;24.95;67.74;98587.77;106144;1278;25388;-85
2022/08/20 09:32:31;;;;;;;28.00;17.60;;;;;;;25.21;67.67;98587.25;106234;1281;22638;-86
2022/08/20 09:34:59;;;;;;;28.50;17.50;;;;;;;25.31;67.24;98586.84;106199;1278;24247;-85
2022/08/20 09:37:32;;;;;;;28.30;17.20;;;;;;;25.50;67.70;98582.76;106085;1278;22572;-87
2022/08/20 09:40:02;;;;;;;28.60;17.20;;;;;;;25.64;66.78;98585.80;106275;1278;22546;-86
2022/08/20 09:42:32;;;;;;;26.20;16.30;;;;;;;25.47;66.57;98581.76;105962;1278;24370;-87
2022/08/20 09:45:00;;;;;;;25.30;16.00;;;;;;;25.58;67.27;98582.29;105954;1277;25348;-85
2022/08/20 09:47:28;;;;;;;24.10;15.80;;;;;;;25.77;67.03;98580.87;105891;1278;22716;-85
2022/08/20 09:49:55;;;;;;;26.30;16.60;;;;;;;25.79;66.44;98585.61;105901;1281;25299;-86
2022/08/20 09:52:32;;;;;;;24.80;16.10;;;;;;;25.65;66.76;98581.63;105856;1278;25674;-87
2022/08/20 09:55:14;;;;;;;24.80;14.70;;;;;;;25.73;66.91;98589.13;106168;1278;25443;-86
2022/08/20 09:57:44;;;;;;;25.40;16.50;;;;;;;25.68;66.19;98592.64;106015;1278;22668;-87
2022/08/20 10:00:11;;;;;;;29.30;17.10;;;;;;;25.56;66.32;98589.14;106008;1277;25329;-87
2022/08/20 10:02:47;;;;;;;26.80;16.00;;;;;;;25.61;66.83;98591.02;105882;1277;22551;-88
2022/08/20 10:05:22;;;;;;;25.50;16.70;;;;;;;25.75;66.78;98590.16;105922;1278;24316;-87
2022/08/20 10:07:52;;;;;;;28.00;17.60;;;;;;;25.86;66.43;98585.02;106032;1277;22560;-87
2022/08/20 10:10:21;;;;;;;25.20;15.20;;;;;;;25.93;66.19;98586.16;105821;1281;25329;-88
2022/08/20 10:12:54;;;;;;;22.70;15.00;;;;;;;25.93;65.86;98585.39;106110;1277;24243;-87
2022/08/20 10:15:27;;;;;;;23.70;15.90;;;;;;;25.81;65.63;98578.54;106902;1278;22576;-90
2022/08/20 10:17:56;;;;;;;25.60;15.90;;;;;;;25.88;66.20;98574.20;105784;1278;22611;-87
2022/08/20 10:20:25;;;;;;;19.70;12.30;;;;;;;26.13;66.02;98569.94;105859;1281;22755;-88
2022/08/20 10:22:59;;;;;;;27.30;16.50;;;;;;;26.29;65.65;98566.36;105974;1277;25251;-88
2022/08/20 10:25:37;;;;;;;27.10;16.30;;;;;;;26.57;66.19;98565.83;106155;1277;22910;-92
2022/08/20 10:28:17;;;;;;;23.20;14.30;;;;;;;26.96;66.00;98567.64;105657;1277;22608;-87
2022/08/20 10:30:56;;;;;;;21.20;14.10;;;;;;;27.00;65.30;98567.76;105849;1278;22507;-86
2022/08/20 10:33:34;;;;;;;21.90;14.60;;;;;;;27.02;65.09;98568.64;106202;1278;22552;-90
2022/08/20 10:36:15;;;;;;;25.50;15.50;;;;;;;27.06;65.06;98571.36;106291;1281;22553;-87
2022/08/20 10:38:47;;;;;;;20.30;14.50;;;;;;;27.13;64.94;98576.56;105927;1281;22544;-87
2022/08/20 10:41:22;;;;;;;24.00;16.20;;;;;;;27.23;65.04;98577.59;106213;1281;25420;-90
2022/08/20 10:43:54;;;;;;;24.90;14.80;;;;;;;27.33;64.82;98576.45;106655;1277;23887;-90
2022/08/20 10:46:36;;;;;;;22.20;13.70;;;;;;;27.44;64.74;98577.54;105523;1281;25614;-88
2022/08/20 10:49:16;;;;;;;21.20;14.90;;;;;;;27.51;64.69;98577.82;106046;1278;22749;-89
2022/08/20 10:51:55;;;;;;;22.30;15.20;;;;;;;27.47;64.35;98583.87;105909;1277;24361;-89
2022/08/20 10:54:25;;;;;;;22.10;14.30;;;;;;;27.51;64.80;98579.85;106130;1278;25370;-90
2022/08/20 10:57:33;;;;;;;22.40;14.60;;;;;;;27.56;64.60;98580.84;105789;1278;22541;-90
2022/08/20 11:00:18;;;;;;;22.10;14.30;;;;;;;27.51;64.36;98579.98;106072;1277;24301;-90
2022/08/20 11:03:01;;;;;;;22.90;15.10;;;;;;;27.42;64.15;98578.19;105888;1278;24283;-91
2022/08/20 11:05:28;;;;;;;23.90;14.40;;;;;;;27.34;64.27;98578.11;106493;1278;22548;-89
2022/08/20 11:07:56;;;;;;;21.00;13.70;;;;;;;27.34;64.38;98579.69;106123;1278;23186;-91
2022/08/20 11:10:29;;;;;;;23.20;15.60;;;;;;;27.37;64.35;98574.42;105558;1279;22668;-90
2022/08/20 11:13:01;;;;;;;20.40;13.70;;;;;;;27.29;63.97;98572.86;105500;1279;25487;-89
2022/08/20 11:15:32;;;;;;;21.50;14.00;;;;;;;27.30;63.71;98569.56;105618;1280;22585;-89
2022/08/20 11:18:06;;;;;;;20.70;13.90;;;;;;;27.37;63.78;98561.09;105720;1282;24215;-89
2022/08/20 11:20:41;;;;;;;22.70;14.80;;;;;;;27.43;63.45;98561.23;106284;1278;22571;-90
2022/08/20 11:23:21;;;;;;;19.60;13.90;;;;;;;27.54;63.50;98563.02;106102;1277;23356;-90
2022/08/20 11:25:52;;;;;;;22.10;14.00;;;;;;;27.70;63.57;98560.94;105505;1278;22570;-89
2022/08/20 11:28:24;;;;;;;21.40;13.30;;;;;;;27.82;63.45;98556.06;105722;1277;22554;-96
2022/08/20 11:31:10;;;;;;;21.30;13.30;;;;;;;27.86;63.25;98553.14;106268;1278;22635;-91
2022/08/20 11:33:46;;;;;;;22.30;13.30;;;;;;;27.97;63.42;98547.64;105945;1278;24186;-92
2022/08/20 11:36:25;;;;;;;20.70;12.40;;;;;;;28.14;62.92;98548.05;105869;1280;22567;-91
2022/08/20 11:39:36;;;;;;;19.30;13.20;;;;;;;28.06;62.92;98546.03;105654;1278;24232;-91
2022/08/20 11:42:13;;;;;;;20.20;12.80;;;;;;;28.01;62.79;98548.73;105716;1277;23915;-90
2022/08/20 11:44:48;;;;;;;18.00;13.20;;;;;;;28.09;62.63;98546.05;105853;1280;25422;-89
2022/08/20 11:47:40;;;;;;;24.20;13.10;;;;;;;28.06;62.30;98539.98;106188;1278;24310;-90
2022/08/20 11:50:27;;;;;;;19.30;12.90;;;;;;;27.88;62.04;98535.59;106882;1278;24191;-92
2022/08/20 11:53:25;;;;;;;20.60;12.20;;;;;;;27.89;62.49;98530.51;106205;1278;22580;-92
2022/08/20 11:59:07;;;;;;;19.30;12.80;;;;;;;27.99;62.19;98528.41;106485;1279;23981;-90
2022/08/20 12:01:59;;;;;;;21.10;12.80;;;;;;;27.95;62.39;98528.09;107284;1278;22990;-93
2022/08/20 12:04:34;;;;;;;19.30;12.20;;;;;;;28.05;62.54;98525.02;106836;1281;25926;-91
2022/08/20 12:07:19;;;;;;;19.20;12.10;;;;;;;28.09;61.90;98518.15;108082;1270;22543;-92
2022/08/20 12:10:08;;;;;;;17.80;12.00;;;;;;;28.07;62.08;98516.73;107244;1277;22604;-92
2022/08/20 12:12:54;;;;;;;17.20;11.80;;;;;;;28.12;61.77;98516.80;106231;1277;22552;-91
2022/08/20 12:15:54;;;;;;;16.30;11.50;;;;;;;27.97;61.29;98515.34;106452;1277;25215;-91
2022/08/20 12:19:26;;;;;;;;;;;;;;;;;;;;;
2022/08/20 12:22:43;;;;;;;23.30;14.40;;;;;;;27.74;62.24;98538.56;103641;1277;5391850;-93
2022/08/20 12:26:25;;;;;;;;;;;;;;;;;;;;;
2022/08/20 12:29:32;;;;;;;;;;;;;;;;;;;;;
2022/08/20 12:36:59;;;;;;;20.80;13.20;;;;;;;27.18;61.41;98536.27;106653;1277;25368;-91
2022/08/20 12:40:49;;;;;;;;;;;;;;;;;;;;;
2022/08/20 12:43:40;;;;;;;19.70;12.30;;;;;;;27.22;61.69;98523.36;107368;1277;22648;-91
2022/08/20 12:50:18;;;;;;;;;;;;;;;;;;;;;
2022/08/20 12:53:18;;;;;;;18.60;10.70;;;;;;;28.05;61.49;98514.33;106749;1284;23869;-91
2022/08/20 12:55:58;;;;;;;19.40;10.70;;;;;;;28.37;61.50;98510.13;106265;1284;22516;-91
2022/08/20 12:58:51;;;;;;;18.40;11.30;;;;;;;28.76;61.44;98506.63;106732;1284;22578;-92
2022/08/20 13:01:51;;;;;;;17.50;10.00;;;;;;;28.87;60.48;98504.24;107072;1284;24272;-92
2022/08/20 13:05:04;;;;;;;15.90;10.30;;;;;;;28.79;60.69;98496.44;106701;1283;22560;-93
2022/08/20 13:07:39;;;;;;;18.00;11.80;;;;;;;28.55;59.79;98496.70;105967;1284;22568;-91